Time;durP1;ratioP1;P1;durP2;ratioP2;P2;SDS_P1;SDS_P2;PMS_P1;PMS_P2;Temp;Humidity;BMP_temperature;BMP_pressure;BME280_temperature;BME280_humidity;BME280_pressure;Samples;Min_cycle;Max_cycle;Signal;HPM_P1;HPM_P2
2022/04/02 00:01:01;;;;;;;9.15;8.25;;;;;;;;;;6052158;23;20031;-84
2022/04/02 00:03:30;;;;;;;7.63;6.68;;;;;;;;;;6045564;23;20018;-85
2022/04/02 00:05:58;;;;;;;6.65;5.95;;;;;;;;;;6048121;23;20030;-85
2022/04/02 00:08:26;;;;;;;7.88;5.82;;;;;;;;;;6077147;23;20010;-84
2022/04/02 00:10:54;;;;;;;9.18;6.85;;;;;;;;;;6093245;23;20041;-84
2022/04/02 00:13:22;;;;;;;11.25;9.07;;;;;;;;;;6098963;23;20572;-84
2022/04/02 00:15:51;;;;;;;6.38;5.78;;;;;;;;;;6055607;23;20330;-84
2022/04/02 00:18:21;;;;;;;8.30;6.95;;;;;;;;;;6070266;23;20459;-84
2022/04/02 00:20:49;;;;;;;8.18;6.43;;;;;;;;;;6076307;23;20053;-84
2022/04/02 00:23:35;;;;;;;6.78;5.15;;;;;;;;;;6069315;23;20030;-84
2022/04/02 00:26:04;;;;;;;11.35;7.30;;;;;;;;;;6071256;23;20022;-84
2022/04/02 00:28:36;;;;;;;;;;;;;;;;;;6078383;23;20458;-84
2022/04/02 00:31:05;;;;;;;8.35;6.47;;;;;;;;;;6079513;23;19921;-84
2022/04/02 00:33:34;;;;;;;9.77;7.15;;;;;;;;;;6096790;23;20030;-84
2022/04/02 00:36:02;;;;;;;8.57;7.50;;;;;;;;;;6078844;23;20026;-84
2022/04/02 00:38:30;;;;;;;9.65;7.50;;;;;;;;;;6068187;23;20022;-85
2022/04/02 00:40:58;;;;;;;10.50;9.50;;;;;;;;;;6100715;23;20027;-84
2022/04/02 00:43:28;;;;;;;9.73;7.55;;;;;;;;;;6069145;23;20014;-85
2022/04/02 00:46:00;;;;;;;8.73;7.93;;;;;;;;;;6068599;23;20331;-85
2022/04/02 00:48:28;;;;;;;8.65;7.30;;;;;;;;;;6043677;23;20029;-85
2022/04/02 00:50:58;;;;;;;7.68;6.35;;;;;;;;;;6045494;23;20026;-85
2022/04/02 00:53:30;;;;;;;7.90;7.20;;;;;;;;;;6072860;23;20026;-85
2022/04/02 00:55:59;;;;;;;7.13;6.22;;;;;;;;;;6045487;23;20359;-85
2022/04/02 00:58:29;;;;;;;11.55;7.70;;;;;;;;;;6092851;23;20026;-86
2022/04/02 01:00:59;;;;;;;9.38;8.48;;;;;;;;;;6044930;23;20350;-85
2022/04/02 01:03:34;;;;;;;8.38;7.28;;;;;;;;;;6045183;23;20033;-86
2022/04/02 01:06:03;;;;;;;11.43;7.78;;;;;;;;;;6044572;23;20030;-86
2022/04/02 01:08:37;;;;;;;8.95;6.47;;;;;;;;;;6075666;23;20042;-86
2022/04/02 01:11:07;;;;;;;8.95;6.78;;;;;;;;;;6044908;23;20022;-85
2022/04/02 01:13:35;;;;;;;8.63;7.78;;;;;;;;;;6048751;23;20029;-86
2022/04/02 01:16:08;;;;;;;7.75;6.10;;;;;;;;;;6078830;23;20029;-86
2022/04/02 01:18:40;;;;;;;7.88;6.68;;;;;;;;;;6067824;23;20470;-86
2022/04/02 01:21:16;;;;;;;7.13;6.43;;;;;;;;;;6076108;23;20067;-86
2022/04/02 01:23:47;;;;;;;9.80;6.20;;;;;;;;;;6078197;23;20015;-86
2022/04/02 01:26:19;;;;;;;9.20;7.07;;;;;;;;;;6069904;23;20319;-86
2022/04/02 01:28:55;;;;;;;6.38;5.78;;;;;;;;;;6069239;23;20023;-86
2022/04/02 01:31:34;;;;;;;7.97;6.55;;;;;;;;;;6078783;23;20037;-86
2022/04/02 01:34:02;;;;;;;7.20;5.45;;;;;;;;;;6070653;23;20494;-86
2022/04/02 01:36:32;;;;;;;6.57;5.88;;;;;;;;;;6076391;23;20359;-86
2022/04/02 01:39:16;;;;;;;8.68;7.28;;;;;;;;;;6049241;23;20014;-86
2022/04/02 01:41:46;;;;;;;7.82;5.70;;;;;;;;;;6016275;23;20034;-86
2022/04/02 01:44:18;;;;;;;8.57;6.00;;;;;;;;;;6063166;23;20351;-86
2022/04/02 01:46:46;;;;;;;7.05;6.32;;;;;;;;;;6016218;23;20015;-86
2022/04/02 01:49:15;;;;;;;9.05;6.50;;;;;;;;;;6062605;23;20035;-86
2022/04/02 01:51:45;;;;;;;6.72;5.80;;;;;;;;;;6075307;23;20035;-86
2022/04/02 01:54:19;;;;;;;6.45;5.70;;;;;;;;;;6015068;23;20034;-86
2022/04/02 01:56:53;;;;;;;9.30;6.25;;;;;;;;;;6046266;23;20029;-86
2022/04/02 01:59:21;;;;;;;7.68;6.53;;;;;;;;;;6049251;23;20011;-86
2022/04/02 02:01:52;;;;;;;6.87;6.00;;;;;;;;;;6015685;23;20045;-86
2022/04/02 02:04:20;;;;;;;5.47;4.55;;;;;;;;;;6048467;23;20301;-86
2022/04/02 02:06:49;;;;;;;8.75;6.40;;;;;;;;;;6049363;23;20011;-87
2022/04/02 02:09:21;;;;;;;7.30;5.80;;;;;;;;;;6038150;23;20030;-86
2022/04/02 02:11:56;;;;;;;6.95;6.25;;;;;;;;;;6015956;23;20023;-86
2022/04/02 02:14:51;;;;;;;6.53;5.10;;;;;;;;;;5979412;23;20351;-86
2022/04/02 02:17:19;;;;;;;7.68;6.72;;;;;;;;;;6015812;23;20026;-86
2022/04/02 02:19:57;;;;;;;10.38;6.18;;;;;;;;;;5994485;23;20352;-86
2022/04/02 02:22:25;;;;;;;7.05;6.32;;;;;;;;;;6038757;23;20038;-87
2022/04/02 02:24:53;;;;;;;6.75;5.88;;;;;;;;;;6039079;23;20023;-86
2022/04/02 02:27:21;;;;;;;7.07;4.78;;;;;;;;;;6049791;23;20109;-87
2022/04/02 02:29:49;;;;;;;7.07;5.40;;;;;;;;;;6015441;23;20026;-87
2022/04/02 02:32:20;;;;;;;6.15;4.65;;;;;;;;;;6015558;23;20328;-88
2022/04/02 02:37:40;;;;;;;8.18;5.70;;;;;;;;;;6029666;23;20504;-88
2022/04/02 02:40:12;;;;;;;6.72;4.95;;;;;;;;;;6047087;23;20033;-88
2022/04/02 02:42:41;;;;;;;9.50;6.45;;;;;;;;;;6045961;23;20030;-89
2022/04/02 02:45:31;;;;;;;10.27;7.50;;;;;;;;;;6049580;23;20033;-88
2022/04/02 02:48:02;;;;;;;5.97;5.43;;;;;;;;;;6046387;23;20022;-90
2022/04/02 02:50:51;;;;;;;9.52;5.95;;;;;;;;;;6084318;23;20030;-85
2022/04/02 02:53:20;;;;;;;4.68;4.28;;;;;;;;;;6103563;23;20042;-84
2022/04/02 02:56:20;;;;;;;10.50;6.88;;;;;;;;;;6075221;23;20022;-85
2022/04/02 02:59:52;;;;;;;10.48;7.78;;;;;;;;;;5953891;23;20648;-82
2022/04/02 03:02:40;;;;;;;8.63;7.70;;;;;;;;;;6062742;23;20057;-84
2022/04/02 03:05:18;;;;;;;12.18;8.20;;;;;;;;;;6074409;23;20465;-85
2022/04/02 03:08:16;;;;;;;11.25;7.90;;;;;;;;;;6078239;23;20033;-85
2022/04/02 03:19:28;;;;;;;13.52;8.95;;;;;;;;;;5841102;24;20036;-85
2022/04/02 03:22:03;;;;;;;13.05;9.07;;;;;;;;;;5889714;24;20457;-84
2022/04/02 03:24:35;;;;;;;16.30;9.75;;;;;;;;;;6065560;23;20457;-85
2022/04/02 03:30:20;;;;;;;18.08;12.48;;;;;;;;;;6106089;23;20026;-84
2022/04/02 03:33:10;;;;;;;14.20;10.88;;;;;;;;;;6078412;23;20025;-85
2022/04/02 03:36:00;;;;;;;19.35;12.88;;;;;;;;;;6074882;23;20029;-85
2022/04/02 03:38:31;;;;;;;15.90;11.63;;;;;;;;;;6098214;23;20022;-84
2022/04/02 03:41:18;;;;;;;13.68;11.15;;;;;;;;;;6104699;23;20350;-85
2022/04/02 03:43:56;;;;;;;15.43;10.32;;;;;;;;;;6109354;23;20014;-82
2022/04/02 03:47:10;;;;;;;15.32;10.63;;;;;;;;;;5994995;23;20030;-85
2022/04/02 03:49:47;;;;;;;13.32;10.15;;;;;;;;;;6050311;23;20049;-85
2022/04/02 03:52:53;;;;;;;13.98;11.45;;;;;;;;;;6080835;23;20009;-84
2022/04/02 03:55:35;;;;;;;15.48;11.60;;;;;;;;;;6077797;23;20022;-85
2022/04/02 03:58:13;;;;;;;10.98;8.65;;;;;;;;;;6074655;23;20048;-82
2022/04/02 04:00:44;;;;;;;16.63;10.35;;;;;;;;;;6074113;23;20461;-84
2022/04/02 04:03:22;;;;;;;17.30;11.55;;;;;;;;;;6075523;23;20029;-86
2022/04/02 04:06:14;;;;;;;17.20;12.55;;;;;;;;;;6073907;23;20373;-85
2022/04/02 04:08:43;;;;;;;23.75;12.70;;;;;;;;;;6104503;23;20458;-84
2022/04/02 04:11:18;;;;;;;12.63;6.45;;;;;;;;;;6075111;23;20034;-85
2022/04/02 04:13:50;;;;;;;16.33;11.48;;;;;;;;;;6073656;23;20366;-85
2022/04/02 04:16:19;;;;;;;15.25;12.00;;;;;;;;;;6074277;23;20022;-85
2022/04/02 04:18:47;;;;;;;17.02;13.10;;;;;;;;;;6074262;23;20469;-85
2022/04/02 04:21:16;;;;;;;19.05;14.15;;;;;;;;;;6073603;23;20022;-83
2022/04/02 04:23:47;;;;;;;19.27;11.68;;;;;;;;;;6051381;23;20014;-85
2022/04/02 04:26:16;;;;;;;15.75;10.35;;;;;;;;;;6075577;23;20477;-85
2022/04/02 04:28:46;;;;;;;18.02;11.80;;;;;;;;;;6074333;23;20033;-85
2022/04/02 04:31:18;;;;;;;19.70;13.55;;;;;;;;;;6075026;23;20020;-84
2022/04/02 04:33:47;;;;;;;14.88;10.63;;;;;;;;;;6100641;23;20022;-83
2022/04/02 04:36:15;;;;;;;20.10;12.18;;;;;;;;;;6074351;23;20051;-84
2022/04/02 04:38:46;;;;;;;19.35;11.68;;;;;;;;;;6045516;23;20026;-84
2022/04/02 04:41:18;;;;;;;15.45;11.35;;;;;;;;;;6045741;23;20030;-84
2022/04/02 04:43:49;;;;;;;16.25;13.70;;;;;;;;;;6045981;23;20363;-83
2022/04/02 04:46:21;;;;;;;21.33;12.63;;;;;;;;;;6070274;23;20049;-84
2022/04/02 04:48:53;;;;;;;11.35;9.70;;;;;;;;;;6076405;23;20022;-84
2022/04/02 04:51:23;;;;;;;15.65;11.35;;;;;;;;;;6079026;23;20015;-83
2022/04/02 04:53:55;;;;;;;14.93;11.45;;;;;;;;;;6021769;23;20037;-85
2022/04/02 04:56:25;;;;;;;17.08;12.88;;;;;;;;;;6068234;23;20347;-84
2022/04/02 04:58:53;;;;;;;14.65;10.73;;;;;;;;;;6103230;23;20021;-85
2022/04/02 05:01:25;;;;;;;15.88;10.45;;;;;;;;;;6044495;23;20026;-83
2022/04/02 05:03:54;;;;;;;12.05;10.85;;;;;;;;;;6055286;23;20018;-85
2022/04/02 05:06:23;;;;;;;14.80;10.32;;;;;;;;;;6092058;23;20030;-84
2022/04/02 05:08:55;;;;;;;16.45;9.80;;;;;;;;;;6043717;23;20576;-83
2022/04/02 05:11:28;;;;;;;7.60;5.43;;;;;;;;;;6044950;23;20564;-85
2022/04/02 05:13:59;;;;;;;8.95;7.30;;;;;;;;;;6044464;23;20474;-84
2022/04/02 05:16:28;;;;;;;8.68;6.88;;;;;;;;;;6044107;23;20018;-84
2022/04/02 05:18:59;;;;;;;12.23;7.22;;;;;;;;;;6045762;23;20018;-83
2022/04/02 05:21:27;;;;;;;10.00;7.38;;;;;;;;;;6072809;23;20484;-85
2022/04/02 05:23:55;;;;;;;9.55;7.68;;;;;;;;;;6044899;23;20454;-83
2022/04/02 05:26:25;;;;;;;10.18;7.70;;;;;;;;;;6044085;23;20038;-84
2022/04/02 05:29:02;;;;;;;10.90;8.25;;;;;;;;;;6045830;23;20030;-85
2022/04/02 05:31:34;;;;;;;7.70;6.97;;;;;;;;;;6079848;23;20019;-83
2022/04/02 05:34:02;;;;;;;6.35;5.65;;;;;;;;;;6070128;23;20029;-85
2022/04/02 05:36:31;;;;;;;10.32;6.68;;;;;;;;;;6076624;23;20026;-84
2022/04/02 05:38:59;;;;;;;8.00;7.28;;;;;;;;;;6044034;23;20030;-85
2022/04/02 05:41:29;;;;;;;8.20;6.78;;;;;;;;;;6073306;23;20030;-85
2022/04/02 05:44:07;;;;;;;9.70;6.65;;;;;;;;;;6023757;23;20022;-85
2022/04/02 05:46:35;;;;;;;10.90;9.85;;;;;;;;;;6045697;23;20019;-84
2022/04/02 05:52:56;;;;;;;;;;;;;;;;;;6102406;23;20030;-84
2022/04/02 05:55:24;;;;;;;8.05;5.90;;;;;;;;;;6106017;23;20318;-85
2022/04/02 05:57:52;;;;;;;9.25;6.82;;;;;;;;;;6071908;23;20026;-83
2022/04/02 06:00:21;;;;;;;13.73;9.65;;;;;;;;;;6096952;23;20534;-84
2022/04/02 06:02:53;;;;;;;6.90;6.03;;;;;;;;;;6082784;23;20025;-83
2022/04/02 06:05:21;;;;;;;12.35;7.03;;;;;;;;;;6101933;23;20023;-83
2022/04/02 06:07:49;;;;;;;12.15;10.27;;;;;;;;;;6107181;23;20339;-83
2022/04/02 06:10:17;;;;;;;12.15;8.52;;;;;;;;;;6073638;23;20346;-82
2022/04/02 06:12:47;;;;;;;12.65;8.40;;;;;;;;;;6104380;23;20454;-83
2022/04/02 06:15:15;;;;;;;10.02;7.93;;;;;;;;;;6107862;23;20461;-82
2022/04/02 06:17:43;;;;;;;9.13;7.32;;;;;;;;;;6100102;23;20018;-84
2022/04/02 06:20:20;;;;;;;11.02;6.78;;;;;;;;;;6082031;23;20014;-83
2022/04/02 06:22:48;;;;;;;7.40;6.68;;;;;;;;;;6107943;23;20015;-82
2022/04/02 06:25:16;;;;;;;9.82;7.32;;;;;;;;;;6077525;23;20037;-81
2022/04/02 06:27:45;;;;;;;12.38;8.25;;;;;;;;;;6107841;23;20021;-82
2022/04/02 06:30:15;;;;;;;17.02;8.88;;;;;;;;;;6073673;23;20022;-83
2022/04/02 06:32:43;;;;;;;11.48;7.47;;;;;;;;;;6079953;23;20019;-82
2022/04/02 06:35:12;;;;;;;8.90;6.78;;;;;;;;;;6082057;23;20473;-82
2022/04/02 06:37:41;;;;;;;8.43;7.20;;;;;;;;;;6075611;23;20030;-83
2022/04/02 06:40:10;;;;;;;10.00;8.27;;;;;;;;;;6082429;23;20014;-82
2022/04/02 06:42:38;;;;;;;12.02;8.10;;;;;;;;;;6096521;23;20027;-83
2022/04/02 06:45:15;;;;;;;11.38;6.47;;;;;;;;;;6078303;23;20026;-84
2022/04/02 06:47:43;;;;;;;10.43;9.00;;;;;;;;;;6106545;23;20018;-81
2022/04/02 06:50:12;;;;;;;10.85;7.93;;;;;;;;;;6043990;23;20481;-81
2022/04/02 06:52:40;;;;;;;10.90;7.25;;;;;;;;;;6043490;23;20022;-81
2022/04/02 06:55:08;;;;;;;10.23;7.50;;;;;;;;;;6044432;23;20026;-81
2022/04/02 06:57:44;;;;;;;13.55;9.05;;;;;;;;;;6044170;23;20026;-81
2022/04/02 07:00:12;;;;;;;9.52;8.25;;;;;;;;;;6077538;23;20049;-82
2022/04/02 07:02:40;;;;;;;8.63;7.60;;;;;;;;;;6044548;23;20443;-82
2022/04/02 07:05:09;;;;;;;13.98;9.80;;;;;;;;;;6043877;23;20351;-82
2022/04/02 07:07:37;;;;;;;13.25;9.25;;;;;;;;;;6067803;23;20033;-81
2022/04/02 07:10:06;;;;;;;14.55;10.75;;;;;;;;;;6043720;23;20029;-81
2022/04/02 07:12:35;;;;;;;13.32;9.27;;;;;;;;;;6076108;23;20030;-81
2022/04/02 07:15:03;;;;;;;11.55;8.68;;;;;;;;;;6092790;23;20450;-81
2022/04/02 07:17:31;;;;;;;12.77;8.73;;;;;;;;;;6072323;23;20026;-81
2022/04/02 07:20:06;;;;;;;16.20;9.38;;;;;;;;;;6044155;23;20599;-81
2022/04/02 07:22:36;;;;;;;11.10;8.25;;;;;;;;;;6068085;23;20043;-81
2022/04/02 07:25:04;;;;;;;14.30;9.50;;;;;;;;;;6045266;23;20046;-81
2022/04/02 07:27:33;;;;;;;9.88;7.43;;;;;;;;;;6046057;23;20030;-81
2022/04/02 07:30:04;;;;;;;12.13;8.63;;;;;;;;;;6045197;23;20026;-80
2022/04/02 07:32:32;;;;;;;16.75;8.95;;;;;;;;;;6045494;23;20018;-81
2022/04/02 07:35:00;;;;;;;12.32;9.50;;;;;;;;;;6079802;23;20394;-82
2022/04/02 07:38:04;;;;;;;17.23;7.93;;;;;;;;;;6046436;23;20033;-83
2022/04/02 07:40:51;;;;;;;12.90;8.65;;;;;;;;;;6034633;23;20355;-80
2022/04/02 07:43:20;;;;;;;14.70;10.10;;;;;;;;;;6045994;23;20413;-81
2022/04/02 07:45:52;;;;;;;10.40;8.43;;;;;;;;;;6045220;23;20030;-80
2022/04/02 07:48:21;;;;;;;13.82;9.27;;;;;;;;;;6103391;23;20014;-80
2022/04/02 07:50:49;;;;;;;13.77;8.15;;;;;;;;;;6104986;23;20018;-80
2022/04/02 07:53:20;;;;;;;11.70;8.18;;;;;;;;;;6045671;23;20469;-80
2022/04/02 07:55:56;;;;;;;17.85;9.55;;;;;;;;;;6079518;23;20022;-80
2022/04/02 07:58:29;;;;;;;13.18;8.38;;;;;;;;;;6095376;23;20019;-80
2022/04/02 08:01:00;;;;;;;30.00;9.45;;;;;;;;;;6069214;23;20033;-80
2022/04/02 08:03:30;;;;;;;13.43;9.63;;;;;;;;;;6069486;23;20015;-80
2022/04/02 08:05:59;;;;;;;10.15;8.40;;;;;;;;;;6045255;23;20023;-80
2022/04/02 08:08:28;;;;;;;12.82;9.07;;;;;;;;;;6068562;23;20019;-80
2022/04/02 08:10:57;;;;;;;11.43;8.60;;;;;;;;;;6104879;23;20014;-80
2022/04/02 08:13:25;;;;;;;11.75;8.13;;;;;;;;;;6073904;23;20035;-81
2022/04/02 08:15:57;;;;;;;11.65;9.77;;;;;;;;;;6079434;23;20022;-80
2022/04/02 08:18:26;;;;;;;13.50;8.45;;;;;;;;;;6068446;23;20026;-80
2022/04/02 08:20:55;;;;;;;11.88;9.77;;;;;;;;;;6045414;23;20026;-81
2022/04/02 08:23:31;;;;;;;11.40;9.88;;;;;;;;;;6078720;23;20030;-80
2022/04/02 08:26:03;;;;;;;20.25;10.13;;;;;;;;;;6071512;23;20076;-80
2022/04/02 08:28:39;;;;;;;12.88;10.63;;;;;;;;;;6077052;23;20025;-80
2022/04/02 08:31:19;;;;;;;11.45;9.15;;;;;;;;;;6045590;23;20018;-80
2022/04/02 08:34:03;;;;;;;8.63;7.63;;;;;;;;;;6044533;23;20019;-80
2022/04/02 08:36:32;;;;;;;10.23;8.98;;;;;;;;;;6077420;23;20346;-80
2022/04/02 08:39:03;;;;;;;14.35;10.48;;;;;;;;;;6044336;23;20019;-80
2022/04/02 08:41:43;;;;;;;13.82;11.00;;;;;;;;;;6073107;23;20350;-80
2022/04/02 08:44:36;;;;;;;7.68;6.95;;;;;;;;;;6079245;23;20523;-80
2022/04/02 08:47:12;;;;;;;10.57;6.95;;;;;;;;;;6081153;23;20030;-87
2022/04/02 08:49:41;;;;;;;11.48;8.07;;;;;;;;;;6044545;23;20775;-85
2022/04/02 08:52:15;;;;;;;9.43;8.30;;;;;;;;;;6078807;23;20018;-85
2022/04/02 08:54:55;;;;;;;9.45;8.00;;;;;;;;;;6093437;23;20358;-86
2022/04/02 08:57:27;;;;;;;13.45;8.20;;;;;;;;;;6045146;23;20348;-87
2022/04/02 09:00:04;;;;;;;8.55;6.85;;;;;;;;;;6045163;23;20041;-87
2022/04/02 09:02:32;;;;;;;10.75;8.70;;;;;;;;;;6021730;23;20034;-86
2022/04/02 09:05:03;;;;;;;11.55;10.05;;;;;;;;;;6021101;23;20034;-86
2022/04/02 09:07:43;;;;;;;14.95;8.13;;;;;;;;;;6104549;23;20019;-86
2022/04/02 09:10:11;;;;;;;14.18;10.32;;;;;;;;;;6070072;23;20042;-88
2022/04/02 09:12:42;;;;;;;21.50;8.88;;;;;;;;;;6101751;23;20019;-85
2022/04/02 09:15:10;;;;;;;14.27;7.25;;;;;;;;;;6079371;23;20099;-86
2022/04/02 09:17:47;;;;;;;10.68;8.82;;;;;;;;;;6097806;23;20022;-87
2022/04/02 09:20:15;;;;;;;9.25;8.45;;;;;;;;;;6078366;23;20322;-88
2022/04/02 09:22:51;;;;;;;9.50;8.40;;;;;;;;;;6104182;23;20021;-85
2022/04/02 09:25:43;;;;;;;13.70;9.87;;;;;;;;;;6098797;23;20024;-90
2022/04/02 09:28:26;;;;;;;20.40;8.30;;;;;;;;;;6104151;23;20254;-84
2022/04/02 09:31:13;;;;;;;9.32;8.48;;;;;;;;;;6104838;23;20014;-87
2022/04/02 09:33:44;;;;;;;11.32;10.15;;;;;;;;;;6097527;23;20522;-86
2022/04/02 09:36:28;;;;;;;12.35;9.75;;;;;;;;;;6103744;23;20049;-87
2022/04/02 09:39:01;;;;;;;11.95;8.88;;;;;;;;;;6094522;23;20026;-88
2022/04/02 09:41:48;;;;;;;14.27;10.27;;;;;;;;;;6099111;23;20035;-87
2022/04/02 09:44:33;;;;;;;10.93;8.20;;;;;;;;;;6103628;23;20014;-88
2022/04/02 09:47:01;;;;;;;10.10;9.10;;;;;;;;;;6104360;23;20019;-87
2022/04/02 09:49:32;;;;;;;9.60;8.40;;;;;;;;;;6098101;23;20018;-86
2022/04/02 09:52:05;;;;;;;10.70;9.05;;;;;;;;;;6104933;23;20025;-90
2022/04/02 09:54:38;;;;;;;9.45;7.80;;;;;;;;;;6093964;23;20029;-86
2022/04/02 09:57:20;;;;;;;12.70;7.75;;;;;;;;;;6075525;23;20030;-87
2022/04/02 09:59:48;;;;;;;14.90;7.35;;;;;;;;;;6104873;23;20017;-86
2022/04/02 10:02:34;;;;;;;12.38;9.77;;;;;;;;;;6070757;23;20041;-85
2022/04/02 10:05:07;;;;;;;15.00;9.95;;;;;;;;;;6100420;23;20034;-85
2022/04/02 10:07:47;;;;;;;11.02;7.47;;;;;;;;;;6104609;23;20022;-86
2022/04/02 10:10:16;;;;;;;15.55;11.27;;;;;;;;;;6094999;23;20459;-86
2022/04/02 10:12:48;;;;;;;9.60;7.50;;;;;;;;;;6076432;23;20022;-85
2022/04/02 10:15:19;;;;;;;14.68;9.13;;;;;;;;;;6104237;23;20486;-83
2022/04/02 10:17:51;;;;;;;15.25;10.60;;;;;;;;;;6098000;23;20034;-84
2022/04/02 10:20:28;;;;;;;10.40;9.02;;;;;;;;;;6068161;23;20018;-85
2022/04/02 10:23:01;;;;;;;10.02;8.95;;;;;;;;;;6045243;23;20029;-86
2022/04/02 10:25:33;;;;;;;9.60;8.25;;;;;;;;;;6099650;23;20026;-84
2022/04/02 10:28:02;;;;;;;9.85;7.43;;;;;;;;;;6106317;23;20015;-86
2022/04/02 10:30:33;;;;;;;11.60;8.95;;;;;;;;;;6095736;23;20355;-84
2022/04/02 10:33:27;;;;;;;9.85;7.85;;;;;;;;;;6101227;23;20022;-84
2022/04/02 10:35:55;;;;;;;11.98;8.93;;;;;;;;;;6106090;23;20015;-84
2022/04/02 10:38:40;;;;;;;15.30;8.27;;;;;;;;;;6096454;23;20030;-85
2022/04/02 10:41:09;;;;;;;10.88;8.85;;;;;;;;;;6075748;23;20037;-83
2022/04/02 10:43:44;;;;;;;8.05;7.28;;;;;;;;;;6104945;23;20018;-84
2022/04/02 10:46:13;;;;;;;11.55;8.40;;;;;;;;;;6095978;23;20022;-84
2022/04/02 10:48:54;;;;;;;11.63;9.15;;;;;;;;;;6102148;23;20331;-83
2022/04/02 10:51:23;;;;;;;12.43;10.47;;;;;;;;;;6105145;23;20018;-84
2022/04/02 10:53:59;;;;;;;15.48;10.32;;;;;;;;;;6097212;23;20477;-85
2022/04/02 10:56:55;;;;;;;13.07;8.15;;;;;;;;;;6103159;23;20041;-85
2022/04/02 10:59:30;;;;;;;13.65;9.07;;;;;;;;;;6093734;23;20029;-84
2022/04/02 11:02:01;;;;;;;7.20;5.82;;;;;;;;;;6098786;23;20034;-85
2022/04/02 11:04:34;;;;;;;9.32;7.38;;;;;;;;;;6104312;23;20018;-85
2022/04/02 11:07:02;;;;;;;15.13;10.02;;;;;;;;;;6106143;23;20017;-84
2022/04/02 11:09:33;;;;;;;12.13;9.05;;;;;;;;;;6099025;23;20031;-84
2022/04/02 11:12:06;;;;;;;21.25;9.57;;;;;;;;;;6105702;23;20418;-84
2022/04/02 11:14:41;;;;;;;13.98;9.27;;;;;;;;;;6095960;23;20030;-84
2022/04/02 11:17:27;;;;;;;13.43;10.07;;;;;;;;;;6101541;23;20029;-83
2022/04/02 11:20:22;;;;;;;14.18;12.68;;;;;;;;;;6080017;23;20021;-84
2022/04/02 11:22:50;;;;;;;15.15;8.80;;;;;;;;;;6040723;23;20034;-84
2022/04/02 11:25:34;;;;;;;9.90;7.07;;;;;;;;;;6101051;23;20022;-81
2022/04/02 11:28:08;;;;;;;10.10;9.07;;;;;;;;;;6105308;23;20338;-83
2022/04/02 11:30:39;;;;;;;11.07;8.13;;;;;;;;;;6095236;23;20026;-84
2022/04/02 11:33:08;;;;;;;13.15;8.02;;;;;;;;;;6101885;23;20355;-83
2022/04/02 11:35:41;;;;;;;11.65;9.13;;;;;;;;;;6106526;23;20021;-82
2022/04/02 11:38:10;;;;;;;7.90;5.72;;;;;;;;;;6097208;23;20048;-84
2022/04/02 11:40:40;;;;;;;10.10;7.85;;;;;;;;;;6103162;23;20029;-84
2022/04/02 11:43:08;;;;;;;8.85;7.35;;;;;;;;;;6106249;23;20011;-83
2022/04/02 11:45:36;;;;;;;9.43;8.15;;;;;;;;;;6075230;23;20022;-83
2022/04/02 11:48:08;;;;;;;11.98;8.52;;;;;;;;;;6106615;23;20011;-84
2022/04/02 11:50:39;;;;;;;11.13;8.90;;;;;;;;;;6097653;23;20027;-84
2022/04/02 11:53:07;;;;;;;12.48;8.88;;;;;;;;;;6102314;23;20022;-83
2022/04/02 11:55:36;;;;;;;11.85;10.63;;;;;;;;;;6106002;23;20018;-83
2022/04/02 11:58:05;;;;;;;11.75;7.85;;;;;;;;;;6093483;23;20027;-83
2022/04/02 12:00:35;;;;;;;11.07;8.52;;;;;;;;;;6078515;23;20030;-83
2022/04/02 12:03:05;;;;;;;12.70;9.13;;;;;;;;;;6105513;23;20026;-82
2022/04/02 12:05:38;;;;;;;12.02;8.98;;;;;;;;;;6097800;23;20023;-83
2022/04/02 12:08:06;;;;;;;10.57;7.78;;;;;;;;;;6104688;23;20473;-82
2022/04/02 12:10:45;;;;;;;14.43;9.30;;;;;;;;;;6076914;23;20027;-83
2022/04/02 12:13:14;;;;;;;9.45;8.68;;;;;;;;;;6075084;23;20061;-83
2022/04/02 12:15:49;;;;;;;10.55;7.10;;;;;;;;;;6105538;23;20026;-82
2022/04/02 12:18:17;;;;;;;8.75;7.85;;;;;;;;;;6096522;23;20486;-83
2022/04/02 12:20:46;;;;;;;8.88;8.05;;;;;;;;;;6102389;23;20027;-82
2022/04/02 12:23:18;;;;;;;10.85;8.45;;;;;;;;;;6105118;23;20014;-82
2022/04/02 12:25:57;;;;;;;7.50;6.82;;;;;;;;;;6098426;23;20029;-83
2022/04/02 12:28:25;;;;;;;13.07;9.38;;;;;;;;;;6078680;23;20334;-82
2022/04/02 12:30:54;;;;;;;8.35;7.55;;;;;;;;;;6105136;23;20022;-82
2022/04/02 12:33:23;;;;;;;11.45;7.25;;;;;;;;;;6099096;23;20037;-82
2022/04/02 12:35:54;;;;;;;7.47;6.15;;;;;;;;;;6095035;23;20018;-81
2022/04/02 12:38:30;;;;;;;10.57;7.65;;;;;;;;;;6094822;23;20026;-81
2022/04/02 12:40:59;;;;;;;6.50;6.05;;;;;;;;;;6100783;23;20022;-81
2022/04/02 12:43:28;;;;;;;10.38;7.20;;;;;;;;;;6080194;23;20457;-82
2022/04/02 12:45:56;;;;;;;7.22;6.53;;;;;;;;;;6097246;23;20030;-81
2022/04/02 12:48:26;;;;;;;8.93;6.95;;;;;;;;;;6103502;23;20714;-81
2022/04/02 12:50:55;;;;;;;8.57;6.65;;;;;;;;;;6104925;23;20014;-81
2022/04/02 12:53:30;;;;;;;10.10;7.20;;;;;;;;;;6098659;23;20041;-80
2022/04/02 12:55:59;;;;;;;6.18;5.57;;;;;;;;;;6104889;23;20025;-83
2022/04/02 12:58:37;;;;;;;11.98;6.97;;;;;;;;;;6094278;23;20030;-83
2022/04/02 13:01:25;;;;;;;8.07;6.72;;;;;;;;;;6100110;23;20030;-83
2022/04/02 13:03:59;;;;;;;8.30;7.63;;;;;;;;;;6103985;23;20771;-83
2022/04/02 13:06:29;;;;;;;11.70;8.70;;;;;;;;;;6094397;23;20100;-83
2022/04/02 13:09:01;;;;;;;11.15;6.53;;;;;;;;;;6099965;23;20034;-83
2022/04/02 13:11:37;;;;;;;10.15;6.75;;;;;;;;;;6104063;23;20017;-84
2022/04/02 13:14:15;;;;;;;7.55;6.82;;;;;;;;;;6096251;23;20037;-83
2022/04/02 13:16:46;;;;;;;7.95;6.05;;;;;;;;;;6100659;23;20026;-83
2022/04/02 13:22:14;;;;;;;7.78;6.40;;;;;;;;;;6095379;23;20025;-83
2022/04/02 13:24:42;;;;;;;10.43;6.82;;;;;;;;;;6101277;23;20022;-81
2022/04/02 13:27:22;;;;;;;9.05;8.15;;;;;;;;;;6103791;23;20446;-81
2022/04/02 13:30:03;;;;;;;6.82;6.20;;;;;;;;;;6096758;23;20027;-81
2022/04/02 13:32:37;;;;;;;6.47;5.88;;;;;;;;;;6102313;23;20030;-80
2022/04/02 13:35:06;;;;;;;7.13;4.85;;;;;;;;;;6104071;23;20522;-83
2022/04/02 13:37:41;;;;;;;6.50;6.00;;;;;;;;;;6097279;23;20026;-80
2022/04/02 13:40:13;;;;;;;6.78;6.13;;;;;;;;;;6068900;23;20047;-81
2022/04/02 13:42:48;;;;;;;9.82;6.32;;;;;;;;;;6067972;23;20023;-80
2022/04/02 13:45:17;;;;;;;5.90;5.03;;;;;;;;;;6068241;23;20027;-81
2022/04/02 13:47:50;;;;;;;7.35;6.65;;;;;;;;;;6103763;23;20518;-80
2022/04/02 13:50:19;;;;;;;6.75;6.05;;;;;;;;;;6094864;23;20033;-80
2022/04/02 13:53:04;;;;;;;6.47;5.88;;;;;;;;;;6100136;23;20265;-80
2022/04/02 13:55:32;;;;;;;6.65;5.75;;;;;;;;;;6078738;23;20018;-80
2022/04/02 13:58:02;;;;;;;6.15;5.63;;;;;;;;;;6096377;23;20042;-80
2022/04/02 14:00:38;;;;;;;7.30;6.60;;;;;;;;;;6101960;23;20018;-81
2022/04/02 14:03:07;;;;;;;9.02;7.25;;;;;;;;;;6104039;23;20015;-80
2022/04/02 14:05:39;;;;;;;8.15;7.38;;;;;;;;;;6097912;23;20037;-85
2022/04/02 14:08:14;;;;;;;8.15;6.93;;;;;;;;;;6104165;23;20026;-82
2022/04/02 14:10:48;;;;;;;8.18;6.38;;;;;;;;;;6092501;23;20038;-81
2022/04/02 14:13:17;;;;;;;8.38;7.53;;;;;;;;;;6099275;23;20037;-82
2022/04/02 14:15:53;;;;;;;6.22;5.63;;;;;;;;;;6103109;23;20346;-81
2022/04/02 14:18:26;;;;;;;4.97;4.57;;;;;;;;;;6093591;23;20030;-82
2022/04/02 14:21:01;;;;;;;9.38;8.48;;;;;;;;;;6099333;23;20023;-81
2022/04/02 14:23:45;;;;;;;9.50;7.25;;;;;;;;;;6078990;23;20014;-83
2022/04/02 14:26:13;;;;;;;11.05;6.68;;;;;;;;;;6045548;23;20027;-83
2022/04/02 14:28:53;;;;;;;6.10;5.50;;;;;;;;;;6103396;23;20034;-82
2022/04/02 14:31:27;;;;;;;7.25;6.55;;;;;;;;;;6105169;23;20025;-83
2022/04/02 14:34:02;;;;;;;5.18;4.05;;;;;;;;;;6099157;23;20022;-84
2022/04/02 14:36:30;;;;;;;6.07;5.53;;;;;;;;;;6079866;23;20018;-83
2022/04/02 14:39:17;;;;;;;9.27;8.20;;;;;;;;;;6097407;23;20072;-83
2022/04/02 14:42:04;;;;;;;8.05;7.45;;;;;;;;;;6075134;23;20041;-82
2022/04/02 14:44:32;;;;;;;8.07;6.88;;;;;;;;;;6104373;23;20319;-82
2022/04/02 14:47:03;;;;;;;7.82;7.13;;;;;;;;;;6070919;23;20029;-82
2022/04/02 14:49:31;;;;;;;;;;;;;;;;;;6099846;23;20018;-82
2022/04/02 14:52:08;;;;;;;6.90;6.30;;;;;;;;;;6106363;23;19917;-82
2022/04/02 14:54:55;;;;;;;7.85;7.35;;;;;;;;;;6094804;23;20042;-82
2022/04/02 14:57:32;;;;;;;11.27;7.70;;;;;;;;;;6100732;23;20029;-84
2022/04/02 15:00:19;;;;;;;8.98;7.43;;;;;;;;;;6106041;23;20026;-83
2022/04/02 15:03:05;;;;;;;11.05;8.65;;;;;;;;;;6077816;23;20034;-82
2022/04/02 15:05:33;;;;;;;8.55;7.43;;;;;;;;;;6070234;23;20034;-81
2022/04/02 15:08:20;;;;;;;6.97;6.38;;;;;;;;;;6080067;23;20014;-81
2022/04/02 15:10:49;;;;;;;7.43;6.78;;;;;;;;;;6079181;23;20030;-82
2022/04/02 15:13:22;;;;;;;9.63;8.68;;;;;;;;;;6100311;23;20038;-82
2022/04/02 15:15:51;;;;;;;9.13;7.53;;;;;;;;;;6106049;23;20019;-82
2022/04/02 15:18:24;;;;;;;11.23;10.10;;;;;;;;;;6096577;23;20030;-83
2022/04/02 15:21:07;;;;;;;8.02;6.30;;;;;;;;;;6076963;23;20022;-83
2022/04/02 15:23:48;;;;;;;9.38;8.48;;;;;;;;;;6105610;23;20023;-82
2022/04/02 15:26:21;;;;;;;9.13;8.38;;;;;;;;;;6096887;23;20026;-82
2022/04/02 15:29:01;;;;;;;10.65;9.65;;;;;;;;;;6101195;23;20022;-83
2022/04/02 15:31:30;;;;;;;8.02;7.30;;;;;;;;;;6106221;23;20021;-83
2022/04/02 15:33:58;;;;;;;10.93;9.05;;;;;;;;;;6097700;23;20334;-82